sensor_id;sensor_type;location;lat;lon;timestamp;P1;durP1;ratioP1;P2;durP2;ratioP2
46755;SDS011;32506;52.826;-1.192;2023-08-06T00:02:03;5.63;;;2.05;;
46755;SDS011;32506;52.826;-1.192;2023-08-06T00:04:28;4.88;;;1.95;;
46755;SDS011;32506;52.826;-1.192;2023-08-06T00:06:57;6.45;;;1.88;;
46755;SDS011;32506;52.826;-1.192;2023-08-06T00:09:22;6.13;;;2.47;;
46755;SDS011;32506;52.826;-1.192;2023-08-06T00:11:48;4.68;;;2.42;;
46755;SDS011;32506;52.826;-1.192;2023-08-06T00:14:13;5.40;;;2.33;;
46755;SDS011;32506;52.826;-1.192;2023-08-06T00:16:42;3.60;;;2.20;;
46755;SDS011;32506;52.826;-1.192;2023-08-06T00:19:08;3.97;;;2.35;;
46755;SDS011;32506;52.826;-1.192;2023-08-06T00:21:33;4.38;;;2.03;;
46755;SDS011;32506;52.826;-1.192;2023-08-06T00:23:59;3.60;;;2.17;;
46755;SDS011;32506;52.826;-1.192;2023-08-06T00:26:24;4.38;;;1.95;;
46755;SDS011;32506;52.826;-1.192;2023-08-06T00:28:50;3.90;;;1.95;;
46755;SDS011;32506;52.826;-1.192;2023-08-06T00:31:15;4.00;;;2.40;;
46755;SDS011;32506;52.826;-1.192;2023-08-06T00:33:41;3.28;;;2.00;;
46755;SDS011;32506;52.826;-1.192;2023-08-06T00:36:06;5.95;;;2.33;;
46755;SDS011;32506;52.826;-1.192;2023-08-06T00:38:32;4.82;;;2.13;;
46755;SDS011;32506;52.826;-1.192;2023-08-06T00:40:57;6.38;;;2.35;;
46755;SDS011;32506;52.826;-1.192;2023-08-06T00:43:22;6.03;;;2.35;;
46755;SDS011;32506;52.826;-1.192;2023-08-06T00:45:48;5.90;;;2.80;;
46755;SDS011;32506;52.826;-1.192;2023-08-06T00:48:14;4.55;;;2.38;;
46755;SDS011;32506;52.826;-1.192;2023-08-06T00:50:40;4.85;;;2.03;;
46755;SDS011;32506;52.826;-1.192;2023-08-06T00:53:05;4.53;;;2.25;;
46755;SDS011;32506;52.826;-1.192;2023-08-06T00:55:31;5.35;;;3.38;;
46755;SDS011;32506;52.826;-1.192;2023-08-06T00:57:58;3.85;;;2.25;;
46755;SDS011;32506;52.826;-1.192;2023-08-06T01:00:24;5.60;;;2.17;;
46755;SDS011;32506;52.826;-1.192;2023-08-06T01:02:50;3.97;;;2.15;;
46755;SDS011;32506;52.826;-1.192;2023-08-06T01:05:15;3.90;;;2.17;;
46755;SDS011;32506;52.826;-1.192;2023-08-06T01:07:46;3.60;;;1.95;;
46755;SDS011;32506;52.826;-1.192;2023-08-06T01:13:33;4.65;;;2.00;;
46755;SDS011;32506;52.826;-1.192;2023-08-06T01:16:15;5.82;;;2.17;;
46755;SDS011;32506;52.826;-1.192;2023-08-06T01:18:43;8.05;;;2.10;;
46755;SDS011;32506;52.826;-1.192;2023-08-06T01:21:12;2.95;;;1.90;;
46755;SDS011;32506;52.826;-1.192;2023-08-06T01:23:38;3.92;;;2.03;;
46755;SDS011;32506;52.826;-1.192;2023-08-06T01:26:22;7.35;;;2.13;;
46755;SDS011;32506;52.826;-1.192;2023-08-06T01:31:26;5.47;;;2.30;;
46755;SDS011;32506;52.826;-1.192;2023-08-06T01:33:54;4.28;;;2.03;;
46755;SDS011;32506;52.826;-1.192;2023-08-06T01:36:21;3.65;;;1.70;;
46755;SDS011;32506;52.826;-1.192;2023-08-06T01:38:48;3.08;;;1.73;;
46755;SDS011;32506;52.826;-1.192;2023-08-06T01:41:13;3.65;;;1.80;;
46755;SDS011;32506;52.826;-1.192;2023-08-06T01:43:39;4.03;;;1.70;;
46755;SDS011;32506;52.826;-1.192;2023-08-06T01:46:04;5.25;;;2.42;;
46755;SDS011;32506;52.826;-1.192;2023-08-06T01:48:30;6.75;;;1.88;;
46755;SDS011;32506;52.826;-1.192;2023-08-06T01:50:55;6.20;;;1.70;;
46755;SDS011;32506;52.826;-1.192;2023-08-06T01:53:20;3.00;;;1.80;;
46755;SDS011;32506;52.826;-1.192;2023-08-06T01:55:49;5.20;;;1.73;;
46755;SDS011;32506;52.826;-1.192;2023-08-06T01:58:15;5.63;;;1.90;;
46755;SDS011;32506;52.826;-1.192;2023-08-06T02:00:40;3.00;;;2.03;;
46755;SDS011;32506;52.826;-1.192;2023-08-06T02:03:06;5.13;;;1.70;;
46755;SDS011;32506;52.826;-1.192;2023-08-06T02:05:31;2.72;;;1.60;;
46755;SDS011;32506;52.826;-1.192;2023-08-06T02:07:57;3.53;;;1.77;;
46755;SDS011;32506;52.826;-1.192;2023-08-06T02:10:23;5.10;;;1.58;;
46755;SDS011;32506;52.826;-1.192;2023-08-06T02:12:48;6.00;;;1.98;;
46755;SDS011;32506;52.826;-1.192;2023-08-06T02:15:14;3.70;;;2.13;;
46755;SDS011;32506;52.826;-1.192;2023-08-06T02:17:39;4.43;;;1.90;;
46755;SDS011;32506;52.826;-1.192;2023-08-06T02:20:05;4.38;;;1.55;;
46755;SDS011;32506;52.826;-1.192;2023-08-06T02:22:30;4.28;;;1.80;;
46755;SDS011;32506;52.826;-1.192;2023-08-06T02:24:56;5.10;;;2.20;;
46755;SDS011;32506;52.826;-1.192;2023-08-06T02:27:21;2.28;;;1.38;;
46755;SDS011;32506;52.826;-1.192;2023-08-06T02:29:47;4.85;;;1.88;;
46755;SDS011;32506;52.826;-1.192;2023-08-06T02:32:12;6.03;;;1.55;;
46755;SDS011;32506;52.826;-1.192;2023-08-06T02:34:38;2.75;;;1.70;;
46755;SDS011;32506;52.826;-1.192;2023-08-06T02:37:03;4.93;;;1.60;;
46755;SDS011;32506;52.826;-1.192;2023-08-06T02:39:29;2.53;;;1.50;;
46755;SDS011;32506;52.826;-1.192;2023-08-06T02:41:54;3.10;;;1.45;;
46755;SDS011;32506;52.826;-1.192;2023-08-06T02:44:20;3.60;;;2.17;;
46755;SDS011;32506;52.826;-1.192;2023-08-06T02:46:45;2.67;;;1.73;;
46755;SDS011;32506;52.826;-1.192;2023-08-06T02:49:11;3.42;;;1.50;;
46755;SDS011;32506;52.826;-1.192;2023-08-06T02:51:36;3.25;;;1.45;;
46755;SDS011;32506;52.826;-1.192;2023-08-06T02:54:02;4.15;;;2.10;;
46755;SDS011;32506;52.826;-1.192;2023-08-06T02:56:27;7.43;;;1.88;;
46755;SDS011;32506;52.826;-1.192;2023-08-06T02:58:53;2.70;;;1.58;;
46755;SDS011;32506;52.826;-1.192;2023-08-06T03:01:18;3.70;;;1.77;;
46755;SDS011;32506;52.826;-1.192;2023-08-06T03:03:43;3.88;;;1.38;;
46755;SDS011;32506;52.826;-1.192;2023-08-06T03:06:09;3.40;;;1.80;;
46755;SDS011;32506;52.826;-1.192;2023-08-06T03:08:34;2.47;;;1.35;;
46755;SDS011;32506;52.826;-1.192;2023-08-06T03:11:00;3.95;;;1.88;;
46755;SDS011;32506;52.826;-1.192;2023-08-06T03:13:25;4.30;;;1.70;;
46755;SDS011;32506;52.826;-1.192;2023-08-06T03:15:54;3.35;;;1.40;;
46755;SDS011;32506;52.826;-1.192;2023-08-06T03:18:21;3.28;;;2.65;;
46755;SDS011;32506;52.826;-1.192;2023-08-06T03:20:47;4.07;;;1.52;;
46755;SDS011;32506;52.826;-1.192;2023-08-06T03:23:12;2.95;;;2.22;;
46755;SDS011;32506;52.826;-1.192;2023-08-06T03:25:38;3.60;;;1.55;;
46755;SDS011;32506;52.826;-1.192;2023-08-06T03:28:03;2.45;;;1.52;;
46755;SDS011;32506;52.826;-1.192;2023-08-06T03:30:29;4.32;;;1.63;;
46755;SDS011;32506;52.826;-1.192;2023-08-06T03:32:54;4.60;;;1.73;;
46755;SDS011;32506;52.826;-1.192;2023-08-06T03:35:20;2.78;;;1.50;;
46755;SDS011;32506;52.826;-1.192;2023-08-06T03:37:45;3.47;;;1.58;;
46755;SDS011;32506;52.826;-1.192;2023-08-06T03:40:11;3.13;;;1.48;;
46755;SDS011;32506;52.826;-1.192;2023-08-06T03:42:37;4.20;;;1.50;;
46755;SDS011;32506;52.826;-1.192;2023-08-06T03:45:02;3.90;;;1.70;;
46755;SDS011;32506;52.826;-1.192;2023-08-06T03:47:28;3.47;;;1.50;;
46755;SDS011;32506;52.826;-1.192;2023-08-06T03:49:53;3.35;;;1.60;;
46755;SDS011;32506;52.826;-1.192;2023-08-06T03:52:19;3.67;;;1.63;;
46755;SDS011;32506;52.826;-1.192;2023-08-06T03:54:44;2.75;;;1.50;;
46755;SDS011;32506;52.826;-1.192;2023-08-06T03:57:10;2.72;;;1.60;;
46755;SDS011;32506;52.826;-1.192;2023-08-06T03:59:36;2.78;;;1.50;;
46755;SDS011;32506;52.826;-1.192;2023-08-06T04:02:01;2.22;;;1.40;;
46755;SDS011;32506;52.826;-1.192;2023-08-06T04:04:27;2.72;;;1.27;;
46755;SDS011;32506;52.826;-1.192;2023-08-06T04:06:52;2.78;;;1.40;;
46755;SDS011;32506;52.826;-1.192;2023-08-06T04:09:18;3.63;;;1.60;;
46755;SDS011;32506;52.826;-1.192;2023-08-06T04:11:43;2.95;;;1.52;;
46755;SDS011;32506;52.826;-1.192;2023-08-06T04:14:09;2.50;;;1.45;;
46755;SDS011;32506;52.826;-1.192;2023-08-06T04:16:34;4.85;;;2.38;;
46755;SDS011;32506;52.826;-1.192;2023-08-06T04:19:00;3.88;;;1.65;;
46755;SDS011;32506;52.826;-1.192;2023-08-06T04:21:25;3.15;;;1.50;;
46755;SDS011;32506;52.826;-1.192;2023-08-06T04:23:50;3.50;;;1.75;;
46755;SDS011;32506;52.826;-1.192;2023-08-06T04:26:16;2.83;;;1.60;;
46755;SDS011;32506;52.826;-1.192;2023-08-06T04:28:41;3.75;;;1.60;;
46755;SDS011;32506;52.826;-1.192;2023-08-06T04:31:07;3.60;;;1.58;;
46755;SDS011;32506;52.826;-1.192;2023-08-06T04:33:32;3.25;;;1.85;;
46755;SDS011;32506;52.826;-1.192;2023-08-06T04:35:58;2.78;;;1.30;;
46755;SDS011;32506;52.826;-1.192;2023-08-06T04:38:24;4.03;;;1.67;;
46755;SDS011;32506;52.826;-1.192;2023-08-06T04:40:53;3.47;;;1.77;;
46755;SDS011;32506;52.826;-1.192;2023-08-06T04:43:18;2.17;;;1.33;;
46755;SDS011;32506;52.826;-1.192;2023-08-06T04:45:50;2.20;;;1.23;;
46755;SDS011;32506;52.826;-1.192;2023-08-06T04:48:18;3.03;;;1.90;;
46755;SDS011;32506;52.826;-1.192;2023-08-06T04:50:44;3.22;;;1.50;;
46755;SDS011;32506;52.826;-1.192;2023-08-06T04:53:13;2.55;;;1.45;;
46755;SDS011;32506;52.826;-1.192;2023-08-06T04:55:39;2.58;;;1.45;;
46755;SDS011;32506;52.826;-1.192;2023-08-06T04:58:04;2.90;;;1.40;;
46755;SDS011;32506;52.826;-1.192;2023-08-06T05:00:30;2.88;;;1.20;;
46755;SDS011;32506;52.826;-1.192;2023-08-06T05:02:55;3.63;;;1.50;;
46755;SDS011;32506;52.826;-1.192;2023-08-06T05:05:21;2.13;;;1.20;;
46755;SDS011;32506;52.826;-1.192;2023-08-06T05:07:48;2.53;;;1.33;;
46755;SDS011;32506;52.826;-1.192;2023-08-06T05:10:14;2.65;;;1.42;;
46755;SDS011;32506;52.826;-1.192;2023-08-06T05:12:40;3.47;;;1.50;;
46755;SDS011;32506;52.826;-1.192;2023-08-06T05:15:06;2.95;;;1.42;;
46755;SDS011;32506;52.826;-1.192;2023-08-06T05:17:32;2.53;;;1.48;;
46755;SDS011;32506;52.826;-1.192;2023-08-06T05:19:57;3.85;;;1.70;;
46755;SDS011;32506;52.826;-1.192;2023-08-06T05:22:23;4.07;;;1.77;;
46755;SDS011;32506;52.826;-1.192;2023-08-06T05:24:48;3.03;;;1.70;;
46755;SDS011;32506;52.826;-1.192;2023-08-06T05:27:14;4.68;;;1.60;;
46755;SDS011;32506;52.826;-1.192;2023-08-06T05:29:39;4.07;;;1.38;;
46755;SDS011;32506;52.826;-1.192;2023-08-06T05:32:05;4.00;;;1.65;;
46755;SDS011;32506;52.826;-1.192;2023-08-06T05:34:31;3.05;;;1.60;;
46755;SDS011;32506;52.826;-1.192;2023-08-06T05:36:56;2.50;;;1.92;;
46755;SDS011;32506;52.826;-1.192;2023-08-06T05:39:21;3.28;;;2.17;;
46755;SDS011;32506;52.826;-1.192;2023-08-06T05:41:47;3.38;;;1.63;;
46755;SDS011;32506;52.826;-1.192;2023-08-06T05:44:12;3.35;;;1.67;;
46755;SDS011;32506;52.826;-1.192;2023-08-06T05:46:38;3.42;;;1.77;;
46755;SDS011;32506;52.826;-1.192;2023-08-06T05:49:03;3.92;;;1.80;;
46755;SDS011;32506;52.826;-1.192;2023-08-06T05:51:30;3.45;;;1.83;;
46755;SDS011;32506;52.826;-1.192;2023-08-06T05:53:55;3.65;;;1.60;;
46755;SDS011;32506;52.826;-1.192;2023-08-06T05:56:21;2.95;;;1.55;;
46755;SDS011;32506;52.826;-1.192;2023-08-06T05:58:46;3.15;;;1.83;;
46755;SDS011;32506;52.826;-1.192;2023-08-06T06:01:12;3.50;;;1.73;;
46755;SDS011;32506;52.826;-1.192;2023-08-06T06:03:38;3.85;;;1.73;;
46755;SDS011;32506;52.826;-1.192;2023-08-06T06:06:03;3.97;;;1.73;;
46755;SDS011;32506;52.826;-1.192;2023-08-06T06:08:29;4.20;;;1.52;;
46755;SDS011;32506;52.826;-1.192;2023-08-06T06:10:54;4.18;;;1.65;;
46755;SDS011;32506;52.826;-1.192;2023-08-06T06:13:20;3.38;;;1.75;;
46755;SDS011;32506;52.826;-1.192;2023-08-06T06:15:48;6.25;;;1.73;;
46755;SDS011;32506;52.826;-1.192;2023-08-06T06:18:14;3.15;;;1.83;;
46755;SDS011;32506;52.826;-1.192;2023-08-06T06:20:39;3.25;;;1.77;;
46755;SDS011;32506;52.826;-1.192;2023-08-06T06:23:05;3.97;;;1.75;;
46755;SDS011;32506;52.826;-1.192;2023-08-06T06:25:30;3.83;;;2.28;;
46755;SDS011;32506;52.826;-1.192;2023-08-06T06:27:56;5.93;;;1.92;;
46755;SDS011;32506;52.826;-1.192;2023-08-06T06:30:21;3.88;;;2.00;;
46755;SDS011;32506;52.826;-1.192;2023-08-06T06:32:46;3.63;;;1.90;;
46755;SDS011;32506;52.826;-1.192;2023-08-06T06:35:12;3.90;;;2.20;;
46755;SDS011;32506;52.826;-1.192;2023-08-06T06:37:37;3.28;;;1.60;;
46755;SDS011;32506;52.826;-1.192;2023-08-06T06:40:03;3.47;;;2.10;;
46755;SDS011;32506;52.826;-1.192;2023-08-06T06:42:29;3.58;;;2.13;;
46755;SDS011;32506;52.826;-1.192;2023-08-06T06:44:54;4.80;;;1.80;;
46755;SDS011;32506;52.826;-1.192;2023-08-06T06:47:20;4.45;;;2.22;;
46755;SDS011;32506;52.826;-1.192;2023-08-06T06:49:45;4.68;;;2.10;;
46755;SDS011;32506;52.826;-1.192;2023-08-06T06:52:11;5.50;;;2.20;;
46755;SDS011;32506;52.826;-1.192;2023-08-06T06:54:36;3.65;;;2.03;;
46755;SDS011;32506;52.826;-1.192;2023-08-06T06:57:02;5.38;;;2.15;;
46755;SDS011;32506;52.826;-1.192;2023-08-06T06:59:27;3.58;;;1.85;;
46755;SDS011;32506;52.826;-1.192;2023-08-06T07:01:53;5.10;;;2.35;;
46755;SDS011;32506;52.826;-1.192;2023-08-06T07:04:18;3.65;;;1.98;;
46755;SDS011;32506;52.826;-1.192;2023-08-06T07:06:44;4.85;;;2.28;;
46755;SDS011;32506;52.826;-1.192;2023-08-06T07:09:09;3.22;;;1.83;;
46755;SDS011;32506;52.826;-1.192;2023-08-06T07:11:35;3.88;;;2.00;;
46755;SDS011;32506;52.826;-1.192;2023-08-06T07:14:00;4.90;;;2.60;;
46755;SDS011;32506;52.826;-1.192;2023-08-06T07:16:26;5.05;;;2.40;;
46755;SDS011;32506;52.826;-1.192;2023-08-06T07:18:52;5.28;;;2.10;;
46755;SDS011;32506;52.826;-1.192;2023-08-06T07:21:18;5.75;;;2.22;;
46755;SDS011;32506;52.826;-1.192;2023-08-06T07:23:44;2.72;;;1.58;;
46755;SDS011;32506;52.826;-1.192;2023-08-06T07:26:10;4.68;;;2.80;;
46755;SDS011;32506;52.826;-1.192;2023-08-06T07:28:36;5.50;;;2.25;;
46755;SDS011;32506;52.826;-1.192;2023-08-06T07:31:02;4.88;;;2.30;;
46755;SDS011;32506;52.826;-1.192;2023-08-06T07:33:28;5.45;;;2.45;;
46755;SDS011;32506;52.826;-1.192;2023-08-06T07:35:54;3.53;;;2.22;;
46755;SDS011;32506;52.826;-1.192;2023-08-06T07:38:19;7.10;;;2.38;;
46755;SDS011;32506;52.826;-1.192;2023-08-06T07:40:45;3.72;;;2.22;;
46755;SDS011;32506;52.826;-1.192;2023-08-06T07:43:11;5.30;;;2.15;;
46755;SDS011;32506;52.826;-1.192;2023-08-06T07:45:36;4.07;;;2.10;;
46755;SDS011;32506;52.826;-1.192;2023-08-06T07:48:02;4.00;;;1.95;;
46755;SDS011;32506;52.826;-1.192;2023-08-06T07:50:28;4.75;;;2.67;;
46755;SDS011;32506;52.826;-1.192;2023-08-06T07:52:54;5.93;;;2.70;;
46755;SDS011;32506;52.826;-1.192;2023-08-06T07:55:19;5.25;;;2.25;;
46755;SDS011;32506;52.826;-1.192;2023-08-06T07:57:45;5.05;;;2.30;;
46755;SDS011;32506;52.826;-1.192;2023-08-06T08:00:10;4.70;;;2.20;;
46755;SDS011;32506;52.826;-1.192;2023-08-06T08:02:36;4.90;;;2.38;;
46755;SDS011;32506;52.826;-1.192;2023-08-06T08:05:01;5.30;;;2.78;;
46755;SDS011;32506;52.826;-1.192;2023-08-06T08:07:27;5.38;;;2.22;;
46755;SDS011;32506;52.826;-1.192;2023-08-06T08:09:55;3.92;;;2.33;;
46755;SDS011;32506;52.826;-1.192;2023-08-06T08:12:21;5.68;;;2.75;;
46755;SDS011;32506;52.826;-1.192;2023-08-06T08:14:46;3.70;;;2.40;;
46755;SDS011;32506;52.826;-1.192;2023-08-06T08:17:12;4.65;;;2.40;;
46755;SDS011;32506;52.826;-1.192;2023-08-06T08:19:37;3.50;;;2.35;;
46755;SDS011;32506;52.826;-1.192;2023-08-06T08:22:02;5.05;;;2.35;;
46755;SDS011;32506;52.826;-1.192;2023-08-06T08:24:28;6.28;;;2.70;;
46755;SDS011;32506;52.826;-1.192;2023-08-06T08:26:55;6.25;;;2.40;;
46755;SDS011;32506;52.826;-1.192;2023-08-06T08:29:21;4.05;;;2.50;;
46755;SDS011;32506;52.826;-1.192;2023-08-06T08:31:47;5.45;;;2.45;;
46755;SDS011;32506;52.826;-1.192;2023-08-06T08:34:18;3.65;;;2.30;;
46755;SDS011;32506;52.826;-1.192;2023-08-06T08:36:43;4.57;;;2.45;;
46755;SDS011;32506;52.826;-1.192;2023-08-06T08:39:12;3.58;;;2.30;;
46755;SDS011;32506;52.826;-1.192;2023-08-06T08:41:37;3.70;;;2.00;;
46755;SDS011;32506;52.826;-1.192;2023-08-06T08:44:04;3.80;;;2.28;;
46755;SDS011;32506;52.826;-1.192;2023-08-06T08:46:34;2.90;;;2.08;;
46755;SDS011;32506;52.826;-1.192;2023-08-06T08:49:01;4.18;;;2.42;;
46755;SDS011;32506;52.826;-1.192;2023-08-06T08:51:29;3.47;;;1.98;;
46755;SDS011;32506;52.826;-1.192;2023-08-06T08:53:56;4.20;;;2.30;;
46755;SDS011;32506;52.826;-1.192;2023-08-06T08:56:22;3.08;;;2.33;;
46755;SDS011;32506;52.826;-1.192;2023-08-06T08:58:49;2.60;;;1.80;;
46755;SDS011;32506;52.826;-1.192;2023-08-06T09:01:17;3.88;;;1.98;;
46755;SDS011;32506;52.826;-1.192;2023-08-06T09:03:44;4.95;;;2.38;;
46755;SDS011;32506;52.826;-1.192;2023-08-06T09:06:10;3.15;;;2.33;;
46755;SDS011;32506;52.826;-1.192;2023-08-06T09:08:39;4.90;;;2.35;;
46755;SDS011;32506;52.826;-1.192;2023-08-06T09:11:15;4.32;;;1.77;;
46755;SDS011;32506;52.826;-1.192;2023-08-06T09:13:42;5.35;;;2.00;;
46755;SDS011;32506;52.826;-1.192;2023-08-06T09:16:07;3.85;;;2.08;;
46755;SDS011;32506;52.826;-1.192;2023-08-06T09:18:33;3.15;;;1.80;;
46755;SDS011;32506;52.826;-1.192;2023-08-06T09:20:58;3.78;;;2.22;;
46755;SDS011;32506;52.826;-1.192;2023-08-06T09:23:27;4.80;;;2.38;;
46755;SDS011;32506;52.826;-1.192;2023-08-06T09:25:58;4.18;;;2.20;;
46755;SDS011;32506;52.826;-1.192;2023-08-06T09:28:34;2.67;;;1.75;;
46755;SDS011;32506;52.826;-1.192;2023-08-06T09:31:03;3.42;;;2.03;;
46755;SDS011;32506;52.826;-1.192;2023-08-06T09:33:29;4.15;;;2.05;;
46755;SDS011;32506;52.826;-1.192;2023-08-06T09:35:54;4.07;;;1.90;;
46755;SDS011;32506;52.826;-1.192;2023-08-06T09:38:20;2.72;;;1.70;;
46755;SDS011;32506;52.826;-1.192;2023-08-06T09:40:45;3.05;;;1.70;;
46755;SDS011;32506;52.826;-1.192;2023-08-06T09:43:12;2.92;;;1.95;;
46755;SDS011;32506;52.826;-1.192;2023-08-06T09:45:38;2.45;;;1.60;;
46755;SDS011;32506;52.826;-1.192;2023-08-06T09:48:07;3.72;;;1.67;;
46755;SDS011;32506;52.826;-1.192;2023-08-06T09:50:35;3.22;;;1.60;;
46755;SDS011;32506;52.826;-1.192;2023-08-06T09:53:02;3.97;;;1.70;;
46755;SDS011;32506;52.826;-1.192;2023-08-06T09:55:28;4.25;;;1.55;;
46755;SDS011;32506;52.826;-1.192;2023-08-06T09:57:54;3.25;;;1.40;;
46755;SDS011;32506;52.826;-1.192;2023-08-06T10:00:20;2.75;;;1.60;;
46755;SDS011;32506;52.826;-1.192;2023-08-06T10:02:46;2.55;;;1.65;;
46755;SDS011;32506;52.826;-1.192;2023-08-06T10:05:13;2.83;;;1.65;;
46755;SDS011;32506;52.826;-1.192;2023-08-06T10:07:40;3.08;;;1.40;;
46755;SDS011;32506;52.826;-1.192;2023-08-06T10:10:08;3.10;;;1.60;;
46755;SDS011;32506;52.826;-1.192;2023-08-06T10:12:34;2.78;;;1.42;;
46755;SDS011;32506;52.826;-1.192;2023-08-06T10:15:05;2.83;;;1.50;;
46755;SDS011;32506;52.826;-1.192;2023-08-06T10:17:35;2.35;;;1.50;;
46755;SDS011;32506;52.826;-1.192;2023-08-06T10:20:02;2.88;;;1.40;;
46755;SDS011;32506;52.826;-1.192;2023-08-06T10:22:32;2.10;;;1.60;;
46755;SDS011;32506;52.826;-1.192;2023-08-06T10:24:58;1.88;;;1.35;;
46755;SDS011;32506;52.826;-1.192;2023-08-06T10:29:56;2.92;;;1.52;;
46755;SDS011;32506;52.826;-1.192;2023-08-06T10:32:46;3.80;;;1.33;;
46755;SDS011;32506;52.826;-1.192;2023-08-06T10:35:27;2.85;;;1.63;;
46755;SDS011;32506;52.826;-1.192;2023-08-06T10:37:52;2.97;;;1.30;;
46755;SDS011;32506;52.826;-1.192;2023-08-06T10:40:20;2.92;;;1.73;;
46755;SDS011;32506;52.826;-1.192;2023-08-06T10:42:46;3.45;;;1.30;;
46755;SDS011;32506;52.826;-1.192;2023-08-06T10:45:15;4.20;;;1.73;;
46755;SDS011;32506;52.826;-1.192;2023-08-06T10:47:44;2.28;;;1.30;;
46755;SDS011;32506;52.826;-1.192;2023-08-06T10:50:14;2.45;;;1.50;;
46755;SDS011;32506;52.826;-1.192;2023-08-06T10:52:42;1.85;;;1.27;;
46755;SDS011;32506;52.826;-1.192;2023-08-06T10:55:08;2.83;;;2.03;;
46755;SDS011;32506;52.826;-1.192;2023-08-06T10:57:34;2.90;;;1.52;;
46755;SDS011;32506;52.826;-1.192;2023-08-06T11:00:00;3.38;;;1.55;;
46755;SDS011;32506;52.826;-1.192;2023-08-06T11:02:25;2.85;;;1.50;;
46755;SDS011;32506;52.826;-1.192;2023-08-06T11:04:51;2.92;;;1.40;;
46755;SDS011;32506;52.826;-1.192;2023-08-06T11:07:16;2.42;;;1.52;;
46755;SDS011;32506;52.826;-1.192;2023-08-06T11:09:42;1.77;;;1.15;;
46755;SDS011;32506;52.826;-1.192;2023-08-06T11:12:10;2.83;;;1.40;;
46755;SDS011;32506;52.826;-1.192;2023-08-06T11:14:36;2.10;;;1.23;;
46755;SDS011;32506;52.826;-1.192;2023-08-06T11:17:02;2.65;;;1.50;;
46755;SDS011;32506;52.826;-1.192;2023-08-06T11:19:27;2.30;;;1.27;;
46755;SDS011;32506;52.826;-1.192;2023-08-06T11:21:54;1.95;;;1.20;;
46755;SDS011;32506;52.826;-1.192;2023-08-06T11:24:20;1.88;;;1.20;;
46755;SDS011;32506;52.826;-1.192;2023-08-06T11:26:45;1.88;;;1.30;;
46755;SDS011;32506;52.826;-1.192;2023-08-06T11:29:11;2.80;;;1.23;;
46755;SDS011;32506;52.826;-1.192;2023-08-06T11:31:36;2.30;;;1.35;;
46755;SDS011;32506;52.826;-1.192;2023-08-06T11:34:02;2.45;;;1.40;;
46755;SDS011;32506;52.826;-1.192;2023-08-06T11:36:34;3.30;;;1.20;;
46755;SDS011;32506;52.826;-1.192;2023-08-06T11:39:05;1.38;;;1.00;;
46755;SDS011;32506;52.826;-1.192;2023-08-06T11:41:31;2.95;;;1.10;;
46755;SDS011;32506;52.826;-1.192;2023-08-06T11:43:58;4.20;;;1.33;;
46755;SDS011;32506;52.826;-1.192;2023-08-06T11:46:24;2.83;;;1.40;;
46755;SDS011;32506;52.826;-1.192;2023-08-06T11:48:51;2.13;;;1.05;;
46755;SDS011;32506;52.826;-1.192;2023-08-06T11:51:22;2.30;;;1.35;;
46755;SDS011;32506;52.826;-1.192;2023-08-06T11:53:49;2.08;;;1.13;;
46755;SDS011;32506;52.826;-1.192;2023-08-06T11:56:15;2.42;;;1.13;;
46755;SDS011;32506;52.826;-1.192;2023-08-06T11:58:41;1.70;;;1.00;;
46755;SDS011;32506;52.826;-1.192;2023-08-06T12:01:07;2.15;;;0.95;;
46755;SDS011;32506;52.826;-1.192;2023-08-06T12:03:33;1.77;;;1.20;;
46755;SDS011;32506;52.826;-1.192;2023-08-06T12:06:04;1.90;;;0.80;;
46755;SDS011;32506;52.826;-1.192;2023-08-06T12:08:29;2.80;;;1.30;;
46755;SDS011;32506;52.826;-1.192;2023-08-06T12:10:55;1.75;;;1.02;;
46755;SDS011;32506;52.826;-1.192;2023-08-06T12:13:20;1.98;;;1.00;;
46755;SDS011;32506;52.826;-1.192;2023-08-06T12:15:46;2.65;;;1.00;;
46755;SDS011;32506;52.826;-1.192;2023-08-06T12:18:11;2.15;;;1.00;;
46755;SDS011;32506;52.826;-1.192;2023-08-06T12:20:37;2.72;;;0.95;;
46755;SDS011;32506;52.826;-1.192;2023-08-06T12:23:03;1.92;;;0.90;;
46755;SDS011;32506;52.826;-1.192;2023-08-06T12:25:29;2.05;;;0.90;;
46755;SDS011;32506;52.826;-1.192;2023-08-06T12:27:57;1.13;;;0.80;;
46755;SDS011;32506;52.826;-1.192;2023-08-06T12:30:22;2.00;;;1.02;;
46755;SDS011;32506;52.826;-1.192;2023-08-06T12:32:48;3.22;;;1.02;;
46755;SDS011;32506;52.826;-1.192;2023-08-06T12:35:13;1.88;;;1.00;;
46755;SDS011;32506;52.826;-1.192;2023-08-06T12:37:39;0.85;;;0.70;;
46755;SDS011;32506;52.826;-1.192;2023-08-06T12:40:05;2.42;;;1.10;;
46755;SDS011;32506;52.826;-1.192;2023-08-06T12:42:31;1.77;;;0.85;;
46755;SDS011;32506;52.826;-1.192;2023-08-06T12:44:57;2.28;;;1.10;;
46755;SDS011;32506;52.826;-1.192;2023-08-06T12:47:23;1.80;;;0.80;;
46755;SDS011;32506;52.826;-1.192;2023-08-06T12:49:49;1.52;;;0.95;;
46755;SDS011;32506;52.826;-1.192;2023-08-06T12:52:14;1.20;;;0.90;;
46755;SDS011;32506;52.826;-1.192;2023-08-06T12:54:41;2.33;;;1.10;;
46755;SDS011;32506;52.826;-1.192;2023-08-06T12:57:07;1.98;;;0.82;;
46755;SDS011;32506;52.826;-1.192;2023-08-06T12:59:32;2.22;;;1.00;;
46755;SDS011;32506;52.826;-1.192;2023-08-06T13:01:58;2.00;;;1.10;;
46755;SDS011;32506;52.826;-1.192;2023-08-06T13:04:24;1.55;;;0.90;;
46755;SDS011;32506;52.826;-1.192;2023-08-06T13:06:50;1.48;;;1.00;;
46755;SDS011;32506;52.826;-1.192;2023-08-06T13:09:15;0.98;;;0.60;;
46755;SDS011;32506;52.826;-1.192;2023-08-06T13:11:41;1.83;;;0.90;;
46755;SDS011;32506;52.826;-1.192;2023-08-06T13:14:08;1.40;;;0.95;;
46755;SDS011;32506;52.826;-1.192;2023-08-06T13:16:34;3.40;;;1.08;;
46755;SDS011;32506;52.826;-1.192;2023-08-06T13:19:01;1.98;;;1.00;;
46755;SDS011;32506;52.826;-1.192;2023-08-06T13:21:31;1.50;;;0.95;;
46755;SDS011;32506;52.826;-1.192;2023-08-06T13:24:17;1.80;;;1.20;;
46755;SDS011;32506;52.826;-1.192;2023-08-06T13:26:43;2.17;;;1.10;;
46755;SDS011;32506;52.826;-1.192;2023-08-06T13:29:08;1.92;;;1.15;;
46755;SDS011;32506;52.826;-1.192;2023-08-06T13:31:34;1.92;;;1.20;;
46755;SDS011;32506;52.826;-1.192;2023-08-06T13:34:00;1.85;;;1.00;;
46755;SDS011;32506;52.826;-1.192;2023-08-06T13:36:26;2.78;;;1.25;;
46755;SDS011;32506;52.826;-1.192;2023-08-06T13:38:52;2.25;;;1.20;;
46755;SDS011;32506;52.826;-1.192;2023-08-06T13:41:18;2.20;;;1.40;;
46755;SDS011;32506;52.826;-1.192;2023-08-06T13:43:44;1.77;;;1.17;;
46755;SDS011;32506;52.826;-1.192;2023-08-06T13:46:10;1.83;;;1.10;;
46755;SDS011;32506;52.826;-1.192;2023-08-06T13:48:41;3.13;;;1.30;;
46755;SDS011;32506;52.826;-1.192;2023-08-06T13:51:07;1.90;;;1.10;;
46755;SDS011;32506;52.826;-1.192;2023-08-06T13:53:33;2.42;;;1.13;;
46755;SDS011;32506;52.826;-1.192;2023-08-06T13:55:58;2.40;;;1.02;;
46755;SDS011;32506;52.826;-1.192;2023-08-06T13:58:23;2.90;;;1.08;;
46755;SDS011;32506;52.826;-1.192;2023-08-06T14:00:50;2.00;;;1.20;;
46755;SDS011;32506;52.826;-1.192;2023-08-06T14:03:18;2.58;;;1.05;;
46755;SDS011;32506;52.826;-1.192;2023-08-06T14:05:43;1.35;;;0.90;;
46755;SDS011;32506;52.826;-1.192;2023-08-06T14:08:09;1.88;;;0.90;;
46755;SDS011;32506;52.826;-1.192;2023-08-06T14:10:34;2.10;;;1.05;;
46755;SDS011;32506;52.826;-1.192;2023-08-06T14:13:00;1.75;;;0.98;;
46755;SDS011;32506;52.826;-1.192;2023-08-06T14:15:25;1.25;;;0.80;;
46755;SDS011;32506;52.826;-1.192;2023-08-06T14:17:51;1.33;;;0.70;;
46755;SDS011;32506;52.826;-1.192;2023-08-06T14:20:16;1.30;;;0.90;;
46755;SDS011;32506;52.826;-1.192;2023-08-06T14:22:42;1.45;;;0.85;;
46755;SDS011;32506;52.826;-1.192;2023-08-06T14:25:07;1.60;;;1.00;;
46755;SDS011;32506;52.826;-1.192;2023-08-06T14:27:33;1.40;;;0.93;;
46755;SDS011;32506;52.826;-1.192;2023-08-06T14:29:58;1.58;;;0.90;;
46755;SDS011;32506;52.826;-1.192;2023-08-06T14:32:24;2.47;;;1.00;;
46755;SDS011;32506;52.826;-1.192;2023-08-06T14:37:20;0.93;;;0.73;;
46755;SDS011;32506;52.826;-1.192;2023-08-06T14:39:46;1.38;;;0.90;;